Time;durP1;ratioP1;P1;durP2;ratioP2;P2;SDS_P1;SDS_P2;PMS_P1;PMS_P2;Temp;Humidity;BMP_temperature;BMP_pressure;BME280_temperature;BME280_humidity;BME280_pressure;Samples;Min_cycle;Max_cycle;Signal;HPM_P1;HPM_P2
2021/01/16 00:02:02;;;;;;;24.27;13.18;;;1.20;85.90;;;;;;5094547;28;20023;-69
2021/01/16 00:04:28;;;;;;;25.38;13.85;;;1.20;86.00;;;;;;5111329;28;20490;-69
2021/01/16 00:06:54;;;;;;;26.95;13.48;;;1.30;86.10;;;;;;5112513;28;20023;-69
2021/01/16 00:09:19;;;;;;;23.17;12.82;;;1.20;86.00;;;;;;5092381;28;20023;-69
2021/01/16 00:11:48;;;;;;;26.63;12.40;;;1.20;85.80;;;;;;5112451;28;20047;-69
2021/01/16 00:14:14;;;;;;;23.73;12.57;;;1.20;85.80;;;;;;5111711;28;20035;-69
2021/01/16 00:16:39;;;;;;;25.23;13.05;;;1.20;85.80;;;;;;5111755;28;20095;-69
2021/01/16 00:19:05;;;;;;;25.05;12.63;;;1.20;85.80;;;;;;5112730;28;20394;-69
2021/01/16 00:21:30;;;;;;;23.38;12.27;;;1.20;85.80;;;;;;5111952;28;20036;-69
2021/01/16 00:23:56;;;;;;;29.00;13.20;;;1.20;85.90;;;;;;5112196;28;20103;-69
2021/01/16 00:26:21;;;;;;;25.27;12.48;;;1.20;85.80;;;;;;5112082;28;20028;-69
2021/01/16 00:28:47;;;;;;;24.88;13.07;;;1.20;85.80;;;;;;5111826;28;20040;-69
2021/01/16 00:31:12;;;;;;;22.85;12.80;;;1.20;85.80;;;;;;5093532;28;20027;-68
2021/01/16 00:33:38;;;;;;;25.02;12.98;;;1.20;85.80;;;;;;5112813;28;20027;-69
2021/01/16 00:36:05;;;;;;;22.90;12.32;;;1.20;85.90;;;;;;5110962;28;20049;-69
2021/01/16 00:38:36;;;;;;;23.00;12.30;;;1.30;86.00;;;;;;5108035;28;20024;-69
2021/01/16 00:41:02;;;;;;;19.67;11.38;;;1.30;85.90;;;;;;5110123;28;20527;-69
2021/01/16 00:43:28;;;;;;;25.67;12.55;;;1.30;86.00;;;;;;5112014;28;20067;-69
2021/01/16 00:45:53;;;;;;;22.23;12.68;;;1.30;85.90;;;;;;5111654;28;20034;-69
2021/01/16 00:48:24;;;;;;;22.02;11.85;;;1.30;85.80;;;;;;5112324;28;20414;-69
2021/01/16 00:50:51;;;;;;;21.50;12.10;;;1.30;85.80;;;;;;5112178;28;20028;-71
2021/01/16 00:53:17;;;;;;;22.75;12.25;;;1.40;85.80;;;;;;5111342;28;20030;-69
2021/01/16 00:55:43;;;;;;;21.90;11.82;;;1.40;85.80;;;;;;5111703;28;20111;-69
2021/01/16 00:58:14;;;;;;;21.08;11.63;;;1.40;85.70;;;;;;5111459;28;20017;-69
2021/01/16 01:00:43;;;;;;;15.35;8.25;;;1.40;85.70;;;;;;5101264;28;20042;-69
2021/01/16 01:03:09;;;;;;;20.48;11.10;;;1.40;85.70;;;;;;5110855;28;20152;-69
2021/01/16 01:05:35;;;;;;;22.67;12.02;;;1.40;85.40;;;;;;5111705;28;20024;-69
2021/01/16 01:08:01;;;;;;;25.00;12.93;;;1.40;85.20;;;;;;5111234;28;20528;-69
2021/01/16 01:10:30;;;;;;;24.63;12.50;;;1.40;85.10;;;;;;5098071;28;20050;-69
2021/01/16 01:12:56;;;;;;;24.17;12.15;;;1.30;84.80;;;;;;5111372;28;20047;-69
2021/01/16 01:15:22;;;;;;;27.65;14.02;;;1.30;84.80;;;;;;5110109;28;20104;-68
2021/01/16 01:17:56;;;;;;;24.48;12.60;;;1.20;85.00;;;;;;5106895;28;20031;-68
2021/01/16 01:20:22;;;;;;;25.48;12.48;;;1.20;85.10;;;;;;5093232;28;20023;-69
2021/01/16 01:22:48;;;;;;;23.23;12.57;;;1.20;85.40;;;;;;5111241;28;20070;-69
2021/01/16 01:25:15;;;;;;;23.33;11.65;;;1.20;85.50;;;;;;5110247;28;20069;-69
2021/01/16 01:27:48;;;;;;;20.00;10.95;;;1.20;85.60;;;;;;5111011;28;20482;-69
2021/01/16 01:30:14;;;;;;;21.00;10.77;;;1.20;85.20;;;;;;5092712;28;20035;-69
2021/01/16 01:32:41;;;;;;;18.63;10.85;;;1.20;85.30;;;;;;5109850;28;20038;-69
2021/01/16 01:35:07;;;;;;;23.20;12.25;;;1.30;85.50;;;;;;5110355;28;20035;-69
2021/01/16 01:37:33;;;;;;;19.15;11.32;;;1.30;85.50;;;;;;5073093;28;20016;-68
2021/01/16 01:39:58;;;;;;;18.70;10.18;;;1.40;85.40;;;;;;5106165;28;20051;-69
2021/01/16 01:42:24;;;;;;;17.58;10.20;;;1.30;85.20;;;;;;5110178;28;20023;-69
2021/01/16 01:44:50;;;;;;;19.52;10.85;;;1.30;85.20;;;;;;5110615;28;20355;-69
2021/01/16 01:47:17;;;;;;;20.55;11.23;;;1.40;85.30;;;;;;5109589;28;20483;-69
2021/01/16 01:49:44;;;;;;;19.83;10.88;;;1.40;85.20;;;;;;5111088;28;20019;-69
2021/01/16 01:52:10;;;;;;;18.27;10.23;;;1.40;85.00;;;;;;5092311;28;20027;-69
2021/01/16 01:54:37;;;;;;;19.98;10.32;;;1.40;84.80;;;;;;5107487;28;20521;-69
2021/01/16 01:57:08;;;;;;;18.70;9.77;;;1.40;84.80;;;;;;5107959;28;20030;-69
2021/01/16 01:59:35;;;;;;;19.15;10.07;;;1.40;84.80;;;;;;5109954;28;20024;-69
2021/01/16 02:02:02;;;;;;;15.38;9.13;;;1.40;84.50;;;;;;5110706;28;20027;-68
2021/01/16 02:04:30;;;;;;;18.95;10.10;;;1.40;84.70;;;;;;5109935;28;20085;-69
2021/01/16 02:06:58;;;;;;;18.13;10.20;;;1.40;84.70;;;;;;5111502;28;20041;-69
2021/01/16 02:09:24;;;;;;;18.80;10.23;;;1.40;84.80;;;;;;5110416;28;20513;-69
2021/01/16 02:11:53;;;;;;;17.77;9.75;;;1.40;84.90;;;;;;5092316;28;20031;-69
2021/01/16 02:14:22;;;;;;;17.65;10.60;;;1.40;84.90;;;;;;5110413;28;20047;-69
2021/01/16 02:16:50;;;;;;;16.00;9.60;;;1.40;84.80;;;;;;5111368;28;20047;-69
2021/01/16 02:19:44;;;;;;;16.05;9.52;;;1.40;84.70;;;;;;5110148;28;20147;-69
2021/01/16 02:22:13;;;;;;;13.57;8.20;;;1.50;84.70;;;;;;5110724;28;20027;-69
2021/01/16 02:24:50;;;;;;;14.73;8.23;;;1.50;84.40;;;;;;5109813;28;20027;-69
2021/01/16 02:27:35;;;;;;;13.32;8.00;;;1.50;84.20;;;;;;5110479;28;20475;-69
2021/01/16 02:30:03;;;;;;;15.20;7.60;;;1.50;84.10;;;;;;5110068;28;20023;-69
2021/01/16 02:32:34;;;;;;;13.90;8.25;;;1.40;84.00;;;;;;5110929;28;20020;-69
2021/01/16 02:35:03;;;;;;;11.30;7.07;;;1.40;83.70;;;;;;5109734;28;20024;-69
2021/01/16 02:37:40;;;;;;;11.02;6.65;;;1.40;83.90;;;;;;5110736;28;20401;-69
2021/01/16 02:40:26;;;;;;;10.82;6.43;;;1.40;83.80;;;;;;5097414;28;20020;-69
2021/01/16 02:43:16;;;;;;;13.68;7.32;;;1.30;83.70;;;;;;5091607;28;20487;-69
2021/01/16 02:45:46;;;;;;;14.02;7.80;;;1.30;83.70;;;;;;5107150;28;20042;-69
2021/01/16 02:48:30;;;;;;;11.30;6.72;;;1.30;83.80;;;;;;5109747;28;20032;-69
2021/01/16 02:51:01;;;;;;;12.48;7.38;;;1.30;83.60;;;;;;5110107;28;20020;-69
2021/01/16 02:53:35;;;;;;;15.15;7.13;;;1.30;83.40;;;;;;5109961;28;20051;-69
2021/01/16 02:56:12;;;;;;;14.43;8.60;;;1.30;83.50;;;;;;5109996;28;20024;-69
2021/01/16 02:58:37;;;;;;;13.88;7.68;;;1.20;83.30;;;;;;5110001;28;20034;-69
2021/01/16 03:01:03;;;;;;;15.05;8.57;;;1.20;83.30;;;;;;5109990;28;20046;-69
2021/01/16 03:03:29;;;;;;;15.25;8.43;;;1.20;83.30;;;;;;5108817;28;20034;-69
2021/01/16 03:05:55;;;;;;;19.33;9.02;;;1.20;83.40;;;;;;5091858;28;20510;-69
2021/01/16 03:08:21;;;;;;;16.58;9.27;;;1.10;83.50;;;;;;5109916;28;20059;-69
2021/01/16 03:10:48;;;;;;;16.45;9.18;;;1.20;83.50;;;;;;5110150;28;20078;-69
2021/01/16 03:13:14;;;;;;;17.85;10.05;;;1.10;83.10;;;;;;5092003;28;20024;-69
2021/01/16 03:15:41;;;;;;;17.70;9.55;;;1.10;83.30;;;;;;5108688;28;20107;-69
2021/01/16 03:18:08;;;;;;;18.92;9.32;;;1.10;83.30;;;;;;5110272;28;20023;-69
2021/01/16 03:20:33;;;;;;;16.25;9.45;;;1.00;83.30;;;;;;5110060;28;20522;-69
2021/01/16 03:23:01;;;;;;;21.42;10.38;;;1.00;83.40;;;;;;5105477;28;20032;-69
2021/01/16 03:25:31;;;;;;;17.55;9.75;;;1.00;83.30;;;;;;5108542;28;20027;-69
2021/01/16 03:27:58;;;;;;;18.63;10.50;;;1.00;83.10;;;;;;5089188;28;20154;-69
2021/01/16 03:30:24;;;;;;;19.33;10.07;;;1.00;83.20;;;;;;5104369;28;20486;-69
2021/01/16 03:32:51;;;;;;;16.95;9.20;;;1.00;83.40;;;;;;5112579;28;20111;-69
2021/01/16 03:35:22;;;;;;;17.92;10.32;;;1.00;83.40;;;;;;5113137;28;20034;-69
2021/01/16 03:37:48;;;;;;;18.58;10.43;;;1.00;83.60;;;;;;5114354;28;20047;-69
2021/01/16 03:40:15;;;;;;;21.90;11.15;;;1.00;83.60;;;;;;5112489;28;20104;-69
2021/01/16 03:42:41;;;;;;;21.52;10.88;;;1.00;83.50;;;;;;5113941;28;20028;-69
2021/01/16 03:45:10;;;;;;;19.42;11.40;;;1.00;83.50;;;;;;5112466;28;20556;-69
2021/01/16 03:47:36;;;;;;;19.65;10.70;;;1.00;83.30;;;;;;5112961;28;20039;-69
2021/01/16 03:50:02;;;;;;;18.73;10.52;;;1.00;83.20;;;;;;5113984;28;20383;-69
2021/01/16 03:52:36;;;;;;;20.55;11.70;;;1.00;83.40;;;;;;5112836;28;20043;-69
2021/01/16 03:55:03;;;;;;;20.02;10.82;;;0.90;83.40;;;;;;5148623;22;20033;-65
2021/01/16 03:57:29;;;;;;;21.50;11.50;;;1.00;83.40;;;;;;5054557;28;20368;-65
2021/01/16 03:59:54;;;;;;;22.73;11.40;;;0.90;83.50;;;;;;5072343;28;20028;-63
2021/01/16 04:02:21;;;;;;;20.13;11.32;;;1.00;83.70;;;;;;5069646;28;20020;-64
2021/01/16 04:04:47;;;;;;;20.38;11.50;;;1.00;83.60;;;;;;5054973;28;20202;-64
2021/01/16 04:07:13;;;;;;;20.83;12.02;;;1.00;83.60;;;;;;5053318;28;20028;-64
2021/01/16 04:09:40;;;;;;;23.52;12.30;;;1.00;83.30;;;;;;5053785;28;20056;-64
2021/01/16 04:12:06;;;;;;;21.50;11.82;;;0.90;83.30;;;;;;5063073;28;20092;-65
2021/01/16 04:14:32;;;;;;;22.77;11.15;;;0.90;83.40;;;;;;5061381;28;20033;-65
2021/01/16 04:16:58;;;;;;;20.17;11.40;;;1.00;84.00;;;;;;5072486;28;20074;-63
2021/01/16 04:19:23;;;;;;;22.88;12.25;;;0.90;83.20;;;;;;5071462;28;20066;-64
2021/01/16 04:21:49;;;;;;;21.90;11.52;;;0.90;83.10;;;;;;5057953;28;20443;-65
2021/01/16 04:24:15;;;;;;;24.02;11.32;;;0.90;83.00;;;;;;5054685;28;20029;-65
2021/01/16 04:26:41;;;;;;;23.77;12.88;;;0.80;83.10;;;;;;5066355;28;20107;-65
2021/01/16 04:29:06;;;;;;;22.05;11.73;;;0.90;83.50;;;;;;5069850;28;20526;-65
2021/01/16 04:31:32;;;;;;;22.35;12.20;;;0.90;83.30;;;;;;5060735;28;20103;-65
2021/01/16 04:33:58;;;;;;;19.33;11.05;;;0.80;83.30;;;;;;5055811;28;20033;-64
2021/01/16 04:36:24;;;;;;;22.42;11.43;;;0.80;83.30;;;;;;5060895;28;20024;-64
2021/01/16 04:38:50;;;;;;;21.42;11.57;;;0.80;83.10;;;;;;5058055;28;20025;-65
2021/01/16 04:41:17;;;;;;;21.20;11.93;;;0.80;83.30;;;;;;5053159;28;20116;-65
2021/01/16 04:43:43;;;;;;;22.48;11.45;;;0.80;83.00;;;;;;5052423;28;20021;-65
2021/01/16 04:46:09;;;;;;;23.05;10.98;;;0.80;83.40;;;;;;5062399;28;20059;-64
2021/01/16 04:48:37;;;;;;;20.88;11.15;;;0.80;83.70;;;;;;5066720;28;20032;-64
2021/01/16 04:51:04;;;;;;;19.23;10.48;;;0.90;83.30;;;;;;5067648;28;20130;-65
2021/01/16 04:53:40;;;;;;;20.65;11.32;;;0.80;83.30;;;;;;5065043;28;20032;-65
2021/01/16 04:56:07;;;;;;;18.92;10.50;;;0.90;83.30;;;;;;5057216;28;20029;-65
2021/01/16 04:58:37;;;;;;;20.77;10.35;;;0.90;83.20;;;;;;5065176;28;20496;-65
2021/01/16 05:01:08;;;;;;;20.08;10.30;;;0.90;83.10;;;;;;5052926;28;20037;-65
2021/01/16 05:03:37;;;;;;;16.70;9.63;;;0.90;83.00;;;;;;5053260;28;20090;-65
2021/01/16 05:06:07;;;;;;;20.27;10.27;;;0.90;83.20;;;;;;5059211;28;20074;-65
2021/01/16 05:08:34;;;;;;;19.35;10.35;;;0.90;83.00;;;;;;5054170;28;20029;-65
2021/01/16 05:11:04;;;;;;;19.90;10.82;;;0.90;83.00;;;;;;5068381;28;20052;-65
2021/01/16 05:13:42;;;;;;;17.42;10.20;;;0.90;83.00;;;;;;5063960;28;20502;-63
2021/01/16 05:16:11;;;;;;;20.40;10.50;;;0.90;83.10;;;;;;5069191;28;20358;-65
2021/01/16 05:18:39;;;;;;;18.38;10.07;;;1.00;83.20;;;;;;5045005;28;20135;-66
2021/01/16 05:21:05;;;;;;;17.77;10.27;;;0.90;83.20;;;;;;5051960;28;20029;-66
2021/01/16 05:23:33;;;;;;;21.67;11.65;;;1.00;83.20;;;;;;5064266;28;20032;-66
2021/01/16 05:25:59;;;;;;;20.13;10.77;;;1.00;83.00;;;;;;5058037;28;20365;-66
2021/01/16 05:28:26;;;;;;;22.75;11.35;;;0.90;83.00;;;;;;5056382;28;20028;-66
2021/01/16 05:30:54;;;;;;;22.15;11.88;;;0.90;82.90;;;;;;5070471;28;20036;-66
2021/01/16 05:33:22;;;;;;;23.33;11.63;;;0.90;83.00;;;;;;5065028;28;20063;-66
2021/01/16 05:35:53;;;;;;;19.65;10.77;;;0.80;82.90;;;;;;5050934;28;20033;-66
2021/01/16 05:38:24;;;;;;;20.80;11.77;;;0.90;83.10;;;;;;5055605;28;20029;-66
2021/01/16 05:40:52;;;;;;;22.65;11.93;;;0.90;83.10;;;;;;5063909;28;20485;-66
2021/01/16 05:43:19;;;;;;;26.80;13.40;;;0.90;83.20;;;;;;5067690;28;20032;-66
2021/01/16 05:45:47;;;;;;;27.48;14.20;;;0.90;83.30;;;;;;5044290;28;20036;-66
2021/01/16 05:48:14;;;;;;;24.27;13.60;;;0.90;83.20;;;;;;5066017;28;20063;-66
2021/01/16 05:50:40;;;;;;;24.13;13.60;;;0.90;82.90;;;;;;5051066;28;20112;-66
2021/01/16 05:53:06;;;;;;;30.75;14.70;;;0.80;83.20;;;;;;5070704;28;20555;-65
2021/01/16 05:55:33;;;;;;;26.73;13.57;;;0.90;83.40;;;;;;5068591;28;20033;-66
2021/01/16 05:58:05;;;;;;;26.67;14.32;;;0.80;83.20;;;;;;5041411;28;20074;-64
2021/01/16 06:00:46;;;;;;;24.75;13.23;;;0.90;83.30;;;;;;5053443;28;20097;-64
2021/01/16 06:03:15;;;;;;;24.42;13.45;;;0.80;83.40;;;;;;5052273;28;20491;-66
2021/01/16 06:05:50;;;;;;;25.60;13.27;;;0.90;83.60;;;;;;5054863;28;20115;-66
2021/01/16 06:08:16;;;;;;;31.58;15.30;;;0.90;83.60;;;;;;5052217;28;20032;-65
2021/01/16 06:10:43;;;;;;;25.50;13.52;;;0.90;83.50;;;;;;5068488;28;20400;-65
2021/01/16 06:13:17;;;;;;;26.45;13.63;;;0.90;83.30;;;;;;5055681;28;20056;-66
2021/01/16 06:15:48;;;;;;;26.02;13.23;;;0.90;83.30;;;;;;5046667;28;20028;-66
2021/01/16 06:18:22;;;;;;;25.40;14.05;;;0.90;83.30;;;;;;5070106;28;20031;-65
2021/01/16 06:20:53;;;;;;;23.15;12.65;;;0.90;83.00;;;;;;5067068;28;20384;-65
2021/01/16 06:23:22;;;;;;;29.85;13.82;;;0.90;83.10;;;;;;5070123;28;20488;-66
2021/01/16 06:25:53;;;;;;;28.00;13.70;;;0.90;83.20;;;;;;5068220;28;20043;-66
2021/01/16 06:28:21;;;;;;;30.75;14.82;;;0.90;83.40;;;;;;5063517;28;20427;-66
2021/01/16 06:30:52;;;;;;;26.95;13.93;;;0.90;83.40;;;;;;5051408;28;20123;-66
2021/01/16 06:33:23;;;;;;;28.52;15.57;;;0.90;83.20;;;;;;5066933;28;20086;-66
2021/01/16 06:36:03;;;;;;;32.10;15.20;;;0.90;83.20;;;;;;5051602;28;20017;-66
2021/01/16 06:38:32;;;;;;;28.55;14.70;;;0.90;83.30;;;;;;5051846;28;20068;-66
2021/01/16 06:41:19;;;;;;;29.98;15.57;;;0.80;83.00;;;;;;5066011;28;20021;-66
2021/01/16 06:43:45;;;;;;;28.63;14.45;;;0.80;83.20;;;;;;5064408;28;20035;-65
2021/01/16 06:46:15;;;;;;;33.35;16.55;;;0.70;83.40;;;;;;5062438;28;20025;-66
2021/01/16 06:48:46;;;;;;;32.83;17.25;;;0.70;83.30;;;;;;5058525;28;20060;-66
2021/01/16 06:51:26;;;;;;;30.25;15.50;;;0.80;83.40;;;;;;5064827;28;20492;-66
2021/01/16 06:53:51;;;;;;;27.23;15.05;;;0.70;83.40;;;;;;5069600;28;20024;-66
2021/01/16 06:56:27;;;;;;;25.02;14.40;;;0.70;83.60;;;;;;5051806;28;20079;-64
2021/01/16 06:58:55;;;;;;;31.38;15.38;;;0.80;83.50;;;;;;5059407;28;20013;-65
2021/01/16 07:01:29;;;;;;;30.65;14.98;;;0.80;83.50;;;;;;5056262;28;20024;-66
2021/01/16 07:03:58;;;;;;;33.60;15.80;;;0.80;83.80;;;;;;5064848;28;20034;-65
2021/01/16 07:06:24;;;;;;;25.08;14.48;;;0.80;83.40;;;;;;5070109;28;20071;-66
2021/01/16 07:08:51;;;;;;;31.33;15.68;;;0.80;83.50;;;;;;5072937;28;20438;-65
2021/01/16 07:11:17;;;;;;;29.35;14.77;;;0.70;83.40;;;;;;5065887;28;20032;-66
2021/01/16 07:13:42;;;;;;;26.92;15.07;;;0.80;83.60;;;;;;5063632;28;20029;-66
2021/01/16 07:16:10;;;;;;;28.80;14.93;;;0.70;83.70;;;;;;5059214;28;20083;-66
2021/01/16 07:18:35;;;;;;;27.27;15.13;;;0.80;83.70;;;;;;5074202;28;20111;-64
2021/01/16 07:21:02;;;;;;;33.92;16.63;;;0.80;83.60;;;;;;5055870;28;20100;-66
2021/01/16 07:23:28;;;;;;;29.58;15.15;;;0.80;83.30;;;;;;5049375;28;20040;-65
2021/01/16 07:25:55;;;;;;;29.70;14.13;;;0.80;83.30;;;;;;5072034;28;20024;-64
2021/01/16 07:28:23;;;;;;;27.02;14.45;;;0.80;83.50;;;;;;5047706;28;20025;-66
2021/01/16 07:30:49;;;;;;;25.50;13.95;;;0.80;83.70;;;;;;5059915;28;20029;-66
2021/01/16 07:33:16;;;;;;;25.70;14.30;;;0.80;83.40;;;;;;5059932;28;20021;-66
2021/01/16 07:35:49;;;;;;;34.00;16.80;;;0.80;83.30;;;;;;5064361;28;20025;-66
2021/01/16 07:38:17;;;;;;;28.20;15.43;;;0.80;83.40;;;;;;5062522;28;20021;-66
2021/01/16 07:40:44;;;;;;;33.10;16.60;;;0.80;83.30;;;;;;5043876;28;20410;-66
2021/01/16 07:43:49;;;;;;;32.75;15.13;;;0.80;82.90;;;;;;5055959;28;20087;-65
2021/01/16 07:46:20;;;;;;;26.33;14.60;;;0.80;83.10;;;;;;5068801;28;20099;-65
2021/01/16 07:48:50;;;;;;;24.63;14.18;;;0.80;83.30;;;;;;5068453;28;20037;-65
2021/01/16 07:51:19;;;;;;;26.83;13.80;;;0.70;83.30;;;;;;5043831;28;20106;-66
2021/01/16 07:53:45;;;;;;;27.42;14.40;;;0.80;83.30;;;;;;5054573;28;20512;-65
2021/01/16 07:56:21;;;;;;;25.50;14.48;;;0.80;83.20;;;;;;5054598;28;20082;-66
2021/01/16 07:59:07;;;;;;;28.25;14.63;;;0.80;83.20;;;;;;5058667;28;20078;-66
2021/01/16 08:02:10;;;;;;;28.48;15.30;;;0.80;83.50;;;;;;5056590;28;20028;-65
2021/01/16 08:05:09;;;;;;;28.25;15.15;;;0.80;83.30;;;;;;4961847;28;20126;-64
2021/01/16 08:08:00;;;;;;;27.10;14.95;;;0.80;83.10;;;;;;5054570;28;20325;-65
2021/01/16 08:10:26;;;;;;;28.23;14.48;;;0.80;83.00;;;;;;5042896;28;20125;-66
2021/01/16 08:12:57;;;;;;;42.88;20.88;;;0.80;83.10;;;;;;5071727;28;20116;-66
2021/01/16 08:15:29;;;;;;;32.10;16.05;;;0.80;83.20;;;;;;5051885;28;20190;-66
2021/01/16 08:17:55;;;;;;;;;;;0.80;83.20;;;;;;5067648;28;20020;-65
2021/01/16 08:20:27;;;;;;;29.52;14.75;;;0.90;83.30;;;;;;5068142;28;19915;-66
2021/01/16 08:22:55;;;;;;;30.70;14.93;;;0.80;82.70;;;;;;5070566;28;20107;-65
2021/01/16 08:25:26;;;;;;;28.25;14.70;;;0.80;82.80;;;;;;5062372;28;20137;-65
2021/01/16 08:27:53;;;;;;;31.65;15.43;;;0.80;83.50;;;;;;5066694;28;20025;-65
2021/01/16 08:30:27;;;;;;;38.85;19.30;;;0.80;83.00;;;;;;5071358;28;20218;-65
2021/01/16 08:33:04;;;;;;;49.80;23.98;;;0.80;82.60;;;;;;5065625;28;20059;-66
2021/01/16 08:35:37;;;;;;;38.55;20.23;;;0.80;82.90;;;;;;5070770;28;20023;-65
2021/01/16 08:38:17;;;;;;;32.45;17.52;;;0.70;82.80;;;;;;5072272;28;20024;-66
2021/01/16 08:41:03;;;;;;;34.25;16.30;;;0.70;82.60;;;;;;5053459;28;20037;-66
2021/01/16 08:43:51;;;;;;;33.72;18.05;;;0.60;82.90;;;;;;5072327;28;20021;-65
2021/01/16 08:46:19;;;;;;;30.10;15.63;;;0.70;83.30;;;;;;5070075;28;20112;-66
2021/01/16 08:49:10;;;;;;;36.50;17.27;;;0.70;83.40;;;;;;5071513;28;20408;-66
2021/01/16 08:51:44;;;;;;;35.80;17.08;;;0.70;83.70;;;;;;5040951;28;20041;-66
2021/01/16 08:54:20;;;;;;;34.00;18.00;;;0.80;83.90;;;;;;5071380;28;20039;-66
2021/01/16 08:56:51;;;;;;;34.33;18.63;;;0.80;83.50;;;;;;5071875;28;20159;-66
2021/01/16 08:59:26;;;;;;;38.40;18.40;;;0.80;83.20;;;;;;5068288;28;20019;-64
2021/01/16 09:02:02;;;;;;;39.78;21.20;;;0.80;84.00;;;;;;5065780;28;20036;-66
2021/01/16 09:04:33;;;;;;;35.50;16.98;;;0.90;83.50;;;;;;5071069;28;20024;-66
2021/01/16 09:07:15;;;;;;;33.10;16.23;;;0.80;83.30;;;;;;5071457;28;20484;-65
2021/01/16 09:09:54;;;;;;;32.00;16.35;;;0.90;83.40;;;;;;5071698;28;20025;-66
2021/01/16 09:12:39;;;;;;;30.23;15.95;;;0.90;83.50;;;;;;5070990;28;20033;-66
2021/01/16 09:15:24;;;;;;;35.90;17.73;;;1.00;84.10;;;;;;5071063;28;20013;-66
2021/01/16 09:18:01;;;;;;;32.35;16.08;;;1.00;83.90;;;;;;5071264;28;20027;-66
2021/01/16 09:20:28;;;;;;;32.17;18.95;;;1.10;83.60;;;;;;5059946;28;20059;-65
2021/01/16 09:22:54;;;;;;;31.42;18.10;;;1.20;83.60;;;;;;5065709;28;20055;-66
2021/01/16 09:25:25;;;;;;;33.63;17.65;;;1.10;83.10;;;;;;5070884;28;20485;-65
2021/01/16 09:27:54;;;;;;;25.25;15.05;;;1.20;83.10;;;;;;5053672;28;20115;-66
2021/01/16 09:30:20;;;;;;;29.75;15.88;;;1.20;82.90;;;;;;5071103;28;20047;-65
2021/01/16 09:32:46;;;;;;;29.75;16.42;;;1.20;82.80;;;;;;5071367;28;20175;-66
2021/01/16 09:35:12;;;;;;;31.48;16.90;;;1.20;83.00;;;;;;5051978;28;20048;-65
2021/01/16 09:37:38;;;;;;;27.98;15.82;;;1.20;82.90;;;;;;5051256;28;20029;-65
2021/01/16 09:40:06;;;;;;;29.15;16.58;;;1.30;82.60;;;;;;5052299;28;20131;-65
2021/01/16 09:42:41;;;;;;;29.30;16.48;;;1.20;82.20;;;;;;5064876;28;20086;-64
2021/01/16 09:45:07;;;;;;;26.60;13.70;;;1.20;82.40;;;;;;5070781;28;20369;-66
2021/01/16 09:47:33;;;;;;;29.23;16.10;;;1.20;82.40;;;;;;5064270;28;20028;-66
2021/01/16 09:50:02;;;;;;;26.35;14.23;;;1.20;82.50;;;;;;5071086;28;20035;-65
2021/01/16 09:52:30;;;;;;;25.55;13.75;;;1.10;82.30;;;;;;5041610;28;20119;-65
2021/01/16 09:54:55;;;;;;;29.33;15.07;;;1.20;82.60;;;;;;5125940;22;20041;-71
2021/01/16 09:57:37;;;;;;;24.75;13.88;;;1.20;82.80;;;;;;5069629;28;20047;-70
2021/01/16 10:00:11;;;;;;;23.63;12.85;;;1.30;82.60;;;;;;5070447;28;20146;-68
2021/01/16 10:02:41;;;;;;;22.27;13.18;;;1.30;82.10;;;;;;5064024;28;20036;-70
2021/01/16 10:05:09;;;;;;;23.90;13.70;;;1.40;81.90;;;;;;5069864;28;20154;-69
2021/01/16 10:07:39;;;;;;;24.23;13.98;;;1.40;81.80;;;;;;5065131;28;20048;-70
2021/01/16 10:10:12;;;;;;;20.45;12.07;;;1.40;81.50;;;;;;5071003;28;20037;-70
2021/01/16 10:12:38;;;;;;;23.50;13.13;;;1.40;81.90;;;;;;5066775;28;20020;-70
2021/01/16 10:15:09;;;;;;;21.88;11.77;;;1.30;81.70;;;;;;5044183;28;20040;-70
2021/01/16 10:17:40;;;;;;;22.75;11.48;;;1.30;81.70;;;;;;5058150;28;20052;-70
2021/01/16 10:20:32;;;;;;;22.23;11.88;;;1.30;82.00;;;;;;5055460;28;20031;-70
2021/01/16 10:23:00;;;;;;;25.17;14.65;;;1.40;81.90;;;;;;5064485;28;20496;-69
2021/01/16 10:25:40;;;;;;;26.08;13.60;;;1.40;81.90;;;;;;5067917;28;20154;-70
2021/01/16 10:28:25;;;;;;;22.95;12.75;;;1.50;82.50;;;;;;5068458;28;20401;-70
2021/01/16 10:31:03;;;;;;;22.63;12.90;;;1.60;81.80;;;;;;5063620;28;20171;-71
2021/01/16 10:33:39;;;;;;;21.48;12.18;;;1.70;81.70;;;;;;5070438;28;20064;-70
2021/01/16 10:36:18;;;;;;;22.42;11.82;;;1.70;81.80;;;;;;5069830;28;20485;-70
2021/01/16 10:38:48;;;;;;;25.05;13.48;;;1.70;81.40;;;;;;5076887;28;20031;-69
2021/01/16 10:41:36;;;;;;;22.77;12.65;;;1.60;80.80;;;;;;5076387;28;20431;-70
2021/01/16 10:44:08;;;;;;;22.25;11.85;;;1.60;81.40;;;;;;5045311;28;20028;-70
2021/01/16 10:46:48;;;;;;;22.02;12.75;;;1.50;81.50;;;;;;5072049;28;20028;-69
2021/01/16 10:49:25;;;;;;;25.65;12.27;;;1.60;81.20;;;;;;5075107;28;20032;-69
2021/01/16 10:52:02;;;;;;;24.00;11.98;;;1.60;81.60;;;;;;5077977;28;20203;-69
2021/01/16 10:54:28;;;;;;;23.88;12.32;;;1.60;81.80;;;;;;5071224;28;20082;-70
2021/01/16 10:56:58;;;;;;;22.38;12.65;;;1.60;81.30;;;;;;5075275;28;20016;-71
2021/01/16 10:59:26;;;;;;;23.02;12.40;;;1.60;80.80;;;;;;5058389;28;20059;-72
2021/01/16 11:01:52;;;;;;;23.52;12.23;;;1.50;81.40;;;;;;5081411;28;20032;-72
2021/01/16 11:04:29;;;;;;;24.38;13.55;;;1.50;81.60;;;;;;5074523;28;20391;-71
2021/01/16 11:07:02;;;;;;;24.30;14.27;;;1.50;81.20;;;;;;5086197;28;20073;-71
2021/01/16 11:09:33;;;;;;;24.67;12.90;;;1.50;80.80;;;;;;5091826;28;20074;-71
2021/01/16 11:12:08;;;;;;;26.00;13.40;;;1.50;81.00;;;;;;5071133;28;20068;-71
2021/01/16 11:14:35;;;;;;;24.45;12.45;;;1.40;80.90;;;;;;5073384;28;20028;-69
2021/01/16 11:17:06;;;;;;;24.52;13.48;;;1.40;80.90;;;;;;5082130;28;20082;-71
2021/01/16 11:19:34;;;;;;;26.02;13.88;;;1.30;81.30;;;;;;5077056;28;20098;-71
2021/01/16 11:22:13;;;;;;;24.05;13.10;;;1.40;81.20;;;;;;5076013;28;20392;-69
2021/01/16 11:24:49;;;;;;;24.13;13.25;;;1.40;81.10;;;;;;5059556;28;20033;-71
2021/01/16 11:27:17;;;;;;;23.05;13.38;;;1.50;81.50;;;;;;5052092;28;20028;-71
2021/01/16 11:29:44;;;;;;;26.98;12.98;;;1.60;81.90;;;;;;5072541;28;20028;-68
2021/01/16 11:32:17;;;;;;;24.48;12.73;;;1.70;81.40;;;;;;5076137;28;20027;-70
2021/01/16 11:35:01;;;;;;;21.88;11.90;;;1.80;81.20;;;;;;5060853;28;20028;-72
2021/01/16 11:37:57;;;;;;;24.02;12.30;;;1.80;81.10;;;;;;5053610;28;20024;-71
2021/01/16 11:40:32;;;;;;;23.17;12.80;;;1.90;81.10;;;;;;5047626;28;20552;-72
2021/01/16 11:43:09;;;;;;;25.27;13.18;;;1.90;80.80;;;;;;5045061;28;20033;-71
2021/01/16 11:45:35;;;;;;;22.95;12.60;;;1.90;80.20;;;;;;5074347;28;20032;-71
2021/01/16 11:48:02;;;;;;;23.25;13.10;;;1.90;80.40;;;;;;5074243;28;20032;-70
2021/01/16 11:50:30;;;;;;;25.38;12.82;;;1.90;80.60;;;;;;5060414;28;20448;-71
2021/01/16 11:52:55;;;;;;;24.50;12.60;;;1.90;80.70;;;;;;5065828;28;20632;-71
2021/01/16 11:55:21;;;;;;;27.58;13.05;;;1.90;80.80;;;;;;5065393;28;20105;-71
2021/01/16 11:57:48;;;;;;;24.20;12.68;;;1.90;80.50;;;;;;5062876;28;20057;-69
2021/01/16 12:00:18;;;;;;;21.80;12.55;;;1.80;80.30;;;;;;5052371;28;20392;-69
2021/01/16 12:02:52;;;;;;;23.60;12.77;;;1.80;80.40;;;;;;5073076;28;20461;-69
2021/01/16 12:05:23;;;;;;;24.50;13.27;;;1.70;80.60;;;;;;5072758;28;20146;-69
2021/01/16 12:07:50;;;;;;;20.17;11.73;;;1.80;80.60;;;;;;5072884;28;20044;-69
2021/01/16 12:10:21;;;;;;;22.98;12.40;;;1.80;80.60;;;;;;5072391;28;20029;-69
2021/01/16 12:12:48;;;;;;;21.83;12.48;;;1.70;80.60;;;;;;5070753;28;20025;-69
2021/01/16 12:15:24;;;;;;;22.88;12.65;;;1.70;80.60;;;;;;5070024;28;20100;-69
2021/01/16 12:17:52;;;;;;;23.20;12.73;;;1.70;80.70;;;;;;5072353;28;20373;-68
2021/01/16 12:20:21;;;;;;;35.90;18.23;;;1.70;80.90;;;;;;5054153;28;20036;-68
2021/01/16 12:22:50;;;;;;;23.50;12.98;;;1.70;81.10;;;;;;5072019;28;20031;-69
2021/01/16 12:25:16;;;;;;;25.05;13.02;;;1.70;81.00;;;;;;5069008;28;20017;-71
2021/01/16 12:27:53;;;;;;;20.60;11.75;;;1.80;81.00;;;;;;5061763;28;20116;-69
2021/01/16 12:30:23;;;;;;;24.95;13.52;;;1.80;80.70;;;;;;5061863;28;20059;-69
2021/01/16 12:32:50;;;;;;;25.88;13.07;;;1.70;80.70;;;;;;5065216;28;20402;-70
2021/01/16 12:35:22;;;;;;;23.52;13.05;;;1.70;80.60;;;;;;5061370;28;20485;-70
2021/01/16 12:37:48;;;;;;;;;;;1.70;80.10;;;;;;5066477;28;20086;-69
2021/01/16 12:40:18;;;;;;;50.45;18.60;;;1.70;80.50;;;;;;5067249;28;19912;-69
2021/01/16 12:42:44;;;;;;;62.33;20.42;;;1.60;80.40;;;;;;5060271;28;20107;-71
2021/01/16 12:45:17;;;;;;;36.75;15.70;;;1.60;80.40;;;;;;5071482;28;20104;-71
2021/01/16 12:47:44;;;;;;;49.50;18.48;;;1.60;80.40;;;;;;5071416;28;20028;-71
2021/01/16 12:50:11;;;;;;;56.65;21.20;;;1.50;80.50;;;;;;5071907;28;20024;-71
2021/01/16 12:52:38;;;;;;;35.50;16.00;;;1.50;80.60;;;;;;5071613;28;20020;-71
2021/01/16 12:55:09;;;;;;;27.52;14.93;;;1.50;80.50;;;;;;5061777;28;20043;-71